createdAt,value
2017-06-24T00:01:21.789Z,14.65
2017-06-24T00:03:49.281Z,13.77
2017-06-24T00:06:16.793Z,13.70
2017-06-24T00:08:44.302Z,14.10
2017-06-24T00:11:11.813Z,13.38
2017-06-24T00:13:39.297Z,14.35
2017-06-24T00:16:06.789Z,13.75
2017-06-24T00:18:34.297Z,13.32
2017-06-24T00:21:01.793Z,13.40
2017-06-24T00:23:29.301Z,13.85
2017-06-24T00:25:56.794Z,15.43
2017-06-24T00:28:24.305Z,14.05
2017-06-24T00:30:51.825Z,15.50
2017-06-24T00:33:19.314Z,14.80
2017-06-24T00:35:46.817Z,14.40
2017-06-24T00:38:14.310Z,14.38
2017-06-24T00:40:41.800Z,14.40
2017-06-24T00:43:09.305Z,15.43
2017-06-24T00:45:36.798Z,15.25
2017-06-24T00:48:04.309Z,16.30
2017-06-24T00:50:31.803Z,14.87
2017-06-24T00:52:59.297Z,15.00
2017-06-24T00:55:26.806Z,14.98
2017-06-24T00:57:54.301Z,15.90
2017-06-24T01:00:21.805Z,13.93
2017-06-24T01:02:49.297Z,15.18
2017-06-24T01:05:16.790Z,14.80
2017-06-24T01:07:44.293Z,15.50
2017-06-24T01:10:11.781Z,13.77
2017-06-24T01:12:39.290Z,15.82
2017-06-24T01:15:06.778Z,15.10
2017-06-24T01:17:34.278Z,15.50
2017-06-24T01:20:01.788Z,14.45
2017-06-24T01:22:29.278Z,15.60
2017-06-24T01:24:56.785Z,15.70
2017-06-24T01:27:24.273Z,14.73
2017-06-24T01:29:51.770Z,13.98
2017-06-24T01:32:19.274Z,15.73
2017-06-24T01:34:46.766Z,15.13
2017-06-24T01:37:14.277Z,14.80
2017-06-24T01:39:41.778Z,14.60
2017-06-24T01:42:09.265Z,14.07
2017-06-24T01:44:36.769Z,15.05
2017-06-24T01:47:04.261Z,13.80
2017-06-24T01:49:31.773Z,14.23
2017-06-24T01:51:59.277Z,14.77
2017-06-24T01:54:26.769Z,14.85
2017-06-24T01:56:54.278Z,13.50
2017-06-24T01:59:21.770Z,14.13
2017-06-24T02:01:49.273Z,14.82
2017-06-24T02:04:16.765Z,14.05
2017-06-24T02:06:44.257Z,15.60
2017-06-24T02:09:11.765Z,13.75
2017-06-24T02:11:39.257Z,14.80
2017-06-24T02:14:06.765Z,14.07
2017-06-24T02:16:34.261Z,13.90
2017-06-24T02:19:01.757Z,14.85
2017-06-24T02:21:29.261Z,15.00
2017-06-24T02:23:56.753Z,15.45
2017-06-24T02:26:24.253Z,16.12
2017-06-24T02:28:51.745Z,15.43
2017-06-24T02:31:19.237Z,14.90
2017-06-24T02:33:46.749Z,15.60
2017-06-24T02:36:14.243Z,15.07
2017-06-24T02:38:41.753Z,14.80
2017-06-24T02:41:09.246Z,15.95
2017-06-24T02:43:36.735Z,14.00
2017-06-24T02:46:04.238Z,16.55
2017-06-24T02:48:31.730Z,15.98
2017-06-24T02:50:59.237Z,14.95
2017-06-24T02:53:26.734Z,15.07
2017-06-24T02:55:54.225Z,15.15
2017-06-24T02:58:21.729Z,14.70
2017-06-24T03:00:49.218Z,15.32
2017-06-24T03:03:16.728Z,15.65
2017-06-24T03:05:44.230Z,14.90
2017-06-24T03:08:11.726Z,15.93
2017-06-24T03:10:39.231Z,15.35
2017-06-24T03:13:06.745Z,14.40
2017-06-24T03:15:34.248Z,14.60
2017-06-24T03:18:01.742Z,14.57
2017-06-24T03:20:29.229Z,13.25
2017-06-24T03:22:56.741Z,14.80
2017-06-24T03:25:24.234Z,15.23
2017-06-24T03:27:51.737Z,14.07
2017-06-24T03:30:19.233Z,15.45
2017-06-24T03:32:46.726Z,14.20
2017-06-24T03:35:14.229Z,15.07
2017-06-24T03:37:41.725Z,15.20
2017-06-24T03:40:09.235Z,13.75
2017-06-24T03:42:36.730Z,14.95
2017-06-24T03:45:04.229Z,12.70
2017-06-24T03:47:31.742Z,14.18
2017-06-24T03:49:59.229Z,13.75
2017-06-24T03:52:26.737Z,13.82
2017-06-24T03:54:54.230Z,14.48
2017-06-24T03:57:21.722Z,13.23
2017-06-24T03:59:49.230Z,13.62
2017-06-24T04:02:16.717Z,14.32
2017-06-24T04:04:44.230Z,14.70
2017-06-24T04:07:11.726Z,15.55
2017-06-24T04:09:39.218Z,14.40
2017-06-24T04:12:06.733Z,13.18
2017-06-24T04:14:34.251Z,15.27
2017-06-24T04:17:01.762Z,14.43
2017-06-24T04:19:29.249Z,13.98
2017-06-24T04:21:56.738Z,13.02
2017-06-24T04:24:24.250Z,14.48
2017-06-24T04:26:51.742Z,14.32
2017-06-24T04:29:19.245Z,14.20
2017-06-24T04:31:46.741Z,13.27
2017-06-24T04:34:14.233Z,12.93
2017-06-24T04:36:41.742Z,12.77
2017-06-24T04:39:09.233Z,12.57
2017-06-24T04:41:36.738Z,12.90
2017-06-24T04:44:04.239Z,12.98
2017-06-24T04:46:31.741Z,11.70
2017-06-24T04:48:59.249Z,13.00
2017-06-24T04:51:26.751Z,12.73
2017-06-24T04:53:54.258Z,12.20
2017-06-24T04:56:21.751Z,13.50
2017-06-24T04:58:49.250Z,12.70
2017-06-24T05:01:16.757Z,12.90
2017-06-24T05:03:44.250Z,13.20
2017-06-24T05:06:11.758Z,13.02
2017-06-24T05:08:39.253Z,11.95
2017-06-24T05:11:06.750Z,12.75
2017-06-24T05:13:34.257Z,13.20
2017-06-24T05:16:01.750Z,12.48
2017-06-24T05:18:29.265Z,14.15
2017-06-24T05:20:56.754Z,13.07
2017-06-24T05:23:24.253Z,12.50
2017-06-24T05:25:51.757Z,12.48
2017-06-24T05:28:19.250Z,13.52
2017-06-24T05:30:46.762Z,13.32
2017-06-24T05:33:14.266Z,13.65
2017-06-24T05:35:41.758Z,12.98
2017-06-24T05:38:09.265Z,13.30
2017-06-24T05:40:36.759Z,12.43
2017-06-24T05:43:04.266Z,11.57
2017-06-24T05:45:31.777Z,12.52
2017-06-24T05:47:59.346Z,11.75
2017-06-24T05:50:26.862Z,12.35
2017-06-24T05:52:54.376Z,12.23
2017-06-24T05:55:21.890Z,12.95
2017-06-24T05:57:49.389Z,12.60
2017-06-24T06:00:16.887Z,12.00
2017-06-24T06:02:44.405Z,11.73
2017-06-24T06:05:11.903Z,12.05
2017-06-24T06:07:39.425Z,11.63
2017-06-24T06:10:06.918Z,11.85
2017-06-24T06:12:34.433Z,11.27
2017-06-24T06:15:01.967Z,12.20
2017-06-24T06:17:29.483Z,11.70
2017-06-24T06:19:56.989Z,11.43
2017-06-24T06:22:24.477Z,11.80
2017-06-24T06:24:51.969Z,11.95
2017-06-24T06:27:19.478Z,11.43
2017-06-24T06:29:46.974Z,11.50
2017-06-24T06:32:14.482Z,12.57
2017-06-24T06:34:41.974Z,12.85
2017-06-24T06:37:09.471Z,12.05
2017-06-24T06:39:36.978Z,11.73
2017-06-24T06:42:04.477Z,11.20
2017-06-24T06:44:31.992Z,11.88
2017-06-24T06:46:59.480Z,10.10
2017-06-24T06:49:26.987Z,10.80
2017-06-24T06:51:54.482Z,11.98
2017-06-24T06:54:21.982Z,11.25
2017-06-24T06:56:49.499Z,10.95
2017-06-24T06:59:16.985Z,9.82
2017-06-24T07:01:44.494Z,10.20
2017-06-24T07:04:11.993Z,10.68
2017-06-24T07:06:39.498Z,10.80
2017-06-24T07:09:06.989Z,11.73
2017-06-24T07:11:34.481Z,10.93
2017-06-24T07:14:01.986Z,11.23
2017-06-24T07:16:29.481Z,10.73
2017-06-24T07:18:56.985Z,10.68
2017-06-24T07:21:24.474Z,9.77
2017-06-24T07:23:51.982Z,10.68
2017-06-24T07:26:19.473Z,10.40
2017-06-24T07:28:46.964Z,10.68
2017-06-24T07:31:14.465Z,9.45
2017-06-24T07:33:41.953Z,9.98
2017-06-24T07:36:09.462Z,10.40
2017-06-24T07:38:36.953Z,9.68
2017-06-24T07:41:04.450Z,10.63
2017-06-24T07:43:31.957Z,9.40
2017-06-24T07:45:59.442Z,8.57
2017-06-24T07:48:26.954Z,10.75
2017-06-24T07:50:54.445Z,11.35
2017-06-24T07:53:21.952Z,9.60
2017-06-24T07:55:49.442Z,10.15
2017-06-24T07:58:16.929Z,8.98
2017-06-24T08:00:44.437Z,10.05
2017-06-24T08:03:11.922Z,8.90
2017-06-24T08:05:39.426Z,9.35
2017-06-24T08:08:06.910Z,9.85
2017-06-24T08:10:34.397Z,9.77
2017-06-24T08:13:01.902Z,9.88
2017-06-24T08:15:29.402Z,10.60
2017-06-24T08:17:56.915Z,10.43
2017-06-24T08:20:24.406Z,9.85
2017-06-24T08:22:51.893Z,9.65
2017-06-24T08:25:19.401Z,10.63
2017-06-24T08:27:46.890Z,10.20
2017-06-24T08:30:14.398Z,10.15
2017-06-24T08:32:41.885Z,9.65
2017-06-24T08:35:09.382Z,10.85
2017-06-24T08:37:36.889Z,9.30
2017-06-24T08:40:04.382Z,10.38
2017-06-24T08:42:31.889Z,9.32
2017-06-24T08:44:59.374Z,8.80
2017-06-24T08:47:26.869Z,9.93
2017-06-24T08:49:54.373Z,9.48
2017-06-24T08:52:21.866Z,9.35
2017-06-24T08:54:49.369Z,9.52
2017-06-24T08:57:16.865Z,10.45
2017-06-24T08:59:44.353Z,8.93
2017-06-24T09:02:11.865Z,10.40
2017-06-24T09:04:39.349Z,9.52
2017-06-24T09:07:06.857Z,8.93
2017-06-24T09:09:34.353Z,9.90
2017-06-24T09:12:01.843Z,8.93
2017-06-24T09:14:29.346Z,9.57
2017-06-24T09:16:56.833Z,8.80
2017-06-24T09:19:24.338Z,9.52
2017-06-24T09:21:51.821Z,9.57
2017-06-24T09:24:19.305Z,9.10
2017-06-24T09:26:46.817Z,9.65
2017-06-24T09:29:14.304Z,9.30
2017-06-24T09:31:41.814Z,9.00
2017-06-24T09:34:09.306Z,9.18
2017-06-24T09:36:36.813Z,9.18
2017-06-24T09:39:04.306Z,10.23
2017-06-24T09:41:31.793Z,9.27
2017-06-24T09:43:59.309Z,11.52
2017-06-24T09:46:26.801Z,10.77
2017-06-24T09:48:54.310Z,9.48
2017-06-24T09:51:21.809Z,10.43
2017-06-24T09:53:49.326Z,9.95
2017-06-24T09:56:16.814Z,9.73
2017-06-24T09:58:44.306Z,9.02
2017-06-24T10:01:11.815Z,10.27
2017-06-24T10:03:39.312Z,10.50
2017-06-24T10:06:06.822Z,9.50
2017-06-24T10:08:34.317Z,10.25
2017-06-24T10:11:01.806Z,9.88
2017-06-24T10:13:29.310Z,9.85
2017-06-24T10:15:56.793Z,9.25
2017-06-24T10:18:24.307Z,10.57
2017-06-24T10:20:51.794Z,8.80
2017-06-24T10:23:19.297Z,9.38
2017-06-24T10:25:46.792Z,11.32
2017-06-24T10:28:14.285Z,9.38
2017-06-24T10:30:41.801Z,10.73
2017-06-24T10:33:09.290Z,10.25
2017-06-24T10:35:36.797Z,10.75
2017-06-24T10:38:04.290Z,10.65
2017-06-24T10:40:31.805Z,10.82
2017-06-24T10:42:59.305Z,10.50
2017-06-24T10:45:26.799Z,10.45
2017-06-24T10:47:54.310Z,9.68
2017-06-24T10:50:21.805Z,10.13
2017-06-24T10:52:49.315Z,9.73
2017-06-24T10:55:16.799Z,9.73
2017-06-24T10:57:44.298Z,10.73
2017-06-24T11:00:11.811Z,10.52
2017-06-24T11:02:39.422Z,11.15
2017-06-24T11:05:06.930Z,10.70
2017-06-24T11:07:34.426Z,10.40
2017-06-24T11:10:01.916Z,11.98
2017-06-24T11:12:29.429Z,10.77
2017-06-24T11:14:56.926Z,11.15
2017-06-24T11:17:24.442Z,11.55
2017-06-24T11:19:51.937Z,10.93
2017-06-24T11:22:19.430Z,11.88
2017-06-24T11:24:46.942Z,10.27
2017-06-24T11:27:14.433Z,12.15
2017-06-24T11:29:41.954Z,12.05
2017-06-24T11:32:09.450Z,11.15
2017-06-24T11:34:36.946Z,11.88
2017-06-24T11:37:04.462Z,11.20
2017-06-24T11:39:31.957Z,11.50
2017-06-24T11:41:59.469Z,11.85
2017-06-24T11:44:26.968Z,10.55
2017-06-24T11:46:54.485Z,12.18
2017-06-24T11:49:21.981Z,10.13
2017-06-24T11:51:49.474Z,11.25
2017-06-24T11:54:16.990Z,11.70
2017-06-24T11:56:44.485Z,11.65
2017-06-24T11:59:12.018Z,10.88
2017-06-24T12:01:39.517Z,11.98
2017-06-24T12:04:07.038Z,11.73
2017-06-24T12:06:34.534Z,11.18
2017-06-24T12:09:02.034Z,11.38
2017-06-24T12:11:29.546Z,12.50
2017-06-24T12:13:57.037Z,11.27
2017-06-24T12:16:24.542Z,10.60
2017-06-24T12:18:52.037Z,10.43
2017-06-24T12:21:19.554Z,11.05
2017-06-24T12:23:47.051Z,10.50
2017-06-24T12:26:14.541Z,12.00
2017-06-24T12:28:42.057Z,11.43
2017-06-24T12:31:09.554Z,10.27
2017-06-24T12:33:37.070Z,11.20
2017-06-24T12:36:04.569Z,10.57
2017-06-24T12:38:32.089Z,10.82
2017-06-24T12:40:59.581Z,11.80
2017-06-24T12:43:27.081Z,10.70
2017-06-24T12:45:54.593Z,11.00
2017-06-24T12:48:22.090Z,11.65
2017-06-24T12:50:49.610Z,11.57
2017-06-24T12:53:17.109Z,11.95
2017-06-24T12:55:44.601Z,10.20
2017-06-24T12:58:12.119Z,11.45
2017-06-24T13:00:39.617Z,11.20
2017-06-24T13:03:07.134Z,10.73
2017-06-24T13:05:34.630Z,11.68
2017-06-24T13:08:02.134Z,12.05
2017-06-24T13:10:29.645Z,11.77
2017-06-24T13:12:57.153Z,12.88
2017-06-24T13:15:24.854Z,11.48
2017-06-24T13:17:52.353Z,11.12
2017-06-24T13:20:19.853Z,10.73
2017-06-24T13:22:47.367Z,12.10
2017-06-24T13:25:14.982Z,11.63
2017-06-24T13:27:42.498Z,10.90
2017-06-24T13:30:09.996Z,12.82
2017-06-24T13:32:37.514Z,11.20
2017-06-24T13:35:05.051Z,13.10
2017-06-24T13:37:32.550Z,11.02
2017-06-24T13:40:00.114Z,11.80
2017-06-24T13:42:27.793Z,11.85
2017-06-24T13:44:56.258Z,12.02
2017-06-24T13:47:23.943Z,12.13
2017-06-24T13:49:52.192Z,11.77
2017-06-24T13:52:19.999Z,12.55
2017-06-24T13:54:47.498Z,11.95
2017-06-24T13:57:15.016Z,11.60
2017-06-24T13:59:42.729Z,12.65
2017-06-24T14:02:10.316Z,11.57
2017-06-24T14:04:37.835Z,12.77
2017-06-24T14:07:05.623Z,11.18
2017-06-24T14:09:33.154Z,12.73
2017-06-24T14:12:00.659Z,11.37
2017-06-24T14:14:28.182Z,11.23
2017-06-24T14:16:55.685Z,11.23
2017-06-24T14:19:23.202Z,11.00
2017-06-24T14:21:50.701Z,10.95
2017-06-24T14:24:19.101Z,12.20
2017-06-24T14:26:46.605Z,11.73
2017-06-24T14:29:14.105Z,11.60
2017-06-24T14:31:41.659Z,11.00
2017-06-24T14:34:09.210Z,10.75
2017-06-24T14:36:36.721Z,11.07
2017-06-24T14:39:04.947Z,11.60
2017-06-24T14:41:32.461Z,10.23
2017-06-24T14:43:59.962Z,11.30
2017-06-24T14:46:27.461Z,10.93
2017-06-24T14:48:54.974Z,10.73
2017-06-24T14:51:22.474Z,11.30
2017-06-24T14:53:50.005Z,10.50
2017-06-24T14:56:17.523Z,10.90
2017-06-24T14:58:45.053Z,10.90
2017-06-24T15:01:13.818Z,10.48
2017-06-24T15:03:41.564Z,12.03
2017-06-24T15:06:09.133Z,10.17
2017-06-24T15:08:36.621Z,11.43
2017-06-24T15:11:04.139Z,10.07
2017-06-24T15:13:31.634Z,10.03
2017-06-24T15:15:59.160Z,9.40
2017-06-24T15:18:26.653Z,9.27
2017-06-24T15:20:54.170Z,10.07
2017-06-24T15:23:21.865Z,9.37
2017-06-24T15:25:49.367Z,9.43
2017-06-24T15:28:16.878Z,10.40
2017-06-24T15:30:44.369Z,11.10
2017-06-24T15:33:11.877Z,10.53
2017-06-24T15:35:39.365Z,9.93
2017-06-24T15:38:06.893Z,11.10
2017-06-24T15:40:34.386Z,10.50
2017-06-24T15:43:01.886Z,10.37
2017-06-24T15:45:29.399Z,10.57
2017-06-24T15:47:56.969Z,11.17
2017-06-24T15:50:24.487Z,12.00
2017-06-24T15:52:51.998Z,11.93
2017-06-24T15:55:19.514Z,10.83
2017-06-24T15:57:47.012Z,10.80
2017-06-24T16:00:14.538Z,10.70
2017-06-24T16:02:42.034Z,11.10
2017-06-24T16:05:09.534Z,10.50
2017-06-24T16:07:37.058Z,10.80
2017-06-24T16:10:04.553Z,10.70
2017-06-24T16:12:32.141Z,11.50
2017-06-24T16:14:59.675Z,10.73
2017-06-24T16:17:27.202Z,9.83
2017-06-24T16:19:54.752Z,12.00
2017-06-24T16:22:22.344Z,11.00
2017-06-24T16:24:49.886Z,11.60
2017-06-24T16:27:17.382Z,11.40
2017-06-24T16:29:44.950Z,11.40
2017-06-24T16:32:12.845Z,11.30
2017-06-24T16:34:40.808Z,11.90
2017-06-24T16:37:08.452Z,11.23
2017-06-24T16:39:36.228Z,11.90
2017-06-24T16:42:03.891Z,11.57
2017-06-24T16:44:31.391Z,10.60
2017-06-24T16:47:00.703Z,11.43
2017-06-24T16:49:28.202Z,11.27
2017-06-24T16:51:55.718Z,11.13
2017-06-24T16:54:23.217Z,10.80
2017-06-24T16:56:50.735Z,11.23
2017-06-24T16:59:18.231Z,11.20
2017-06-24T17:01:45.804Z,11.63
2017-06-24T17:04:13.334Z,12.27
2017-06-24T17:06:40.833Z,12.67
2017-06-24T17:09:08.342Z,10.80
2017-06-24T17:11:35.838Z,10.80
2017-06-24T17:14:03.351Z,12.23
2017-06-24T17:16:30.851Z,11.47
2017-06-24T17:18:58.373Z,10.20
2017-06-24T17:21:25.872Z,11.63
2017-06-24T17:23:53.371Z,11.20
2017-06-24T17:26:20.881Z,11.40
2017-06-24T17:28:48.369Z,12.87
2017-06-24T17:31:15.878Z,11.17
2017-06-24T17:33:43.376Z,12.43
2017-06-24T17:36:10.894Z,11.23
2017-06-24T17:38:39.417Z,11.88
2017-06-24T17:41:06.943Z,12.75
2017-06-24T17:43:34.442Z,12.18
2017-06-24T17:46:01.941Z,11.88
2017-06-24T17:48:29.460Z,11.23
2017-06-24T17:50:56.969Z,10.77
2017-06-24T17:53:24.480Z,11.90
2017-06-24T17:55:51.981Z,12.05
2017-06-24T17:58:19.505Z,12.27
2017-06-24T18:00:47.006Z,11.40
2017-06-24T18:03:14.506Z,11.90
2017-06-24T18:05:42.021Z,11.82
2017-06-24T18:08:09.541Z,11.55
2017-06-24T18:10:37.049Z,12.25
2017-06-24T18:13:04.555Z,11.60
2017-06-24T18:15:32.069Z,12.18
2017-06-24T18:17:59.567Z,11.02
2017-06-24T18:20:27.097Z,11.07
2017-06-24T18:22:54.598Z,11.52
2017-06-24T18:25:22.092Z,12.30
2017-06-24T18:27:49.609Z,12.35
2017-06-24T18:30:17.102Z,11.80
2017-06-24T18:32:44.613Z,11.35
2017-06-24T18:35:12.109Z,10.68
2017-06-24T18:37:39.623Z,10.57
2017-06-24T18:40:07.122Z,11.75
2017-06-24T18:42:34.637Z,11.60
2017-06-24T18:45:02.133Z,11.23
2017-06-24T18:47:29.625Z,10.93
2017-06-24T18:49:57.134Z,11.05
2017-06-24T18:52:24.632Z,10.57
2017-06-24T18:54:52.142Z,11.10
2017-06-24T18:57:19.635Z,11.68
2017-06-24T18:59:47.145Z,11.80
2017-06-24T19:02:14.754Z,10.32
2017-06-24T19:04:42.270Z,10.43
2017-06-24T19:07:09.758Z,11.23
2017-06-24T19:09:37.253Z,9.93
2017-06-24T19:12:04.763Z,10.50
2017-06-24T19:14:32.254Z,11.30
2017-06-24T19:16:59.761Z,10.88
2017-06-24T19:19:27.259Z,10.55
2017-06-24T19:21:54.790Z,10.63
2017-06-24T19:24:22.285Z,10.90
2017-06-24T19:26:49.777Z,11.00
2017-06-24T19:29:17.293Z,11.77
2017-06-24T19:31:44.790Z,12.68
2017-06-24T19:34:12.297Z,11.77
2017-06-24T19:36:39.787Z,10.20
2017-06-24T19:39:07.320Z,11.12
2017-06-24T19:41:34.818Z,11.45
2017-06-24T19:44:02.309Z,11.00
2017-06-24T19:46:29.821Z,11.95
2017-06-24T19:48:57.313Z,10.73
2017-06-24T19:51:24.821Z,10.65
2017-06-24T19:53:52.313Z,10.63
2017-06-24T19:56:19.826Z,11.55
2017-06-24T19:58:47.318Z,10.65
2017-06-24T20:01:14.813Z,11.50
2017-06-24T20:04:17.822Z,10.70
2017-06-24T20:06:45.333Z,11.38
2017-06-24T20:09:12.822Z,10.50
2017-06-24T20:11:40.318Z,10.65
2017-06-24T20:14:07.825Z,12.37
2017-06-24T20:16:35.320Z,12.65
2017-06-24T20:19:02.825Z,11.18
2017-06-24T20:21:30.314Z,11.98
2017-06-24T20:23:57.821Z,12.10
2017-06-24T20:26:25.314Z,12.75
2017-06-24T20:28:52.829Z,13.02
2017-06-24T20:31:20.317Z,13.82
2017-06-24T20:33:47.800Z,12.07
2017-06-24T20:36:15.306Z,12.80
2017-06-24T20:38:42.801Z,13.30
2017-06-24T20:41:10.313Z,12.30
2017-06-24T20:43:37.805Z,13.25
2017-06-24T20:46:05.310Z,13.07
2017-06-24T20:48:32.801Z,13.55
2017-06-24T20:51:00.309Z,12.77
2017-06-24T20:53:27.806Z,13.60
2017-06-24T20:55:55.297Z,13.65
2017-06-24T20:58:22.805Z,13.93
2017-06-24T21:00:50.315Z,12.80
2017-06-24T21:03:17.826Z,14.13
2017-06-24T21:05:45.313Z,14.30
2017-06-24T21:08:12.821Z,12.18
2017-06-24T21:10:40.309Z,13.27
2017-06-24T21:13:07.799Z,12.65
2017-06-24T21:15:35.300Z,13.73
2017-06-24T21:18:02.793Z,14.13
2017-06-24T21:20:30.310Z,13.27
2017-06-24T21:22:57.837Z,13.70
2017-06-24T21:25:25.349Z,12.90
2017-06-24T21:27:52.837Z,14.73
2017-06-24T21:30:20.333Z,13.90
2017-06-24T21:32:47.842Z,13.88
2017-06-24T21:35:15.333Z,15.23
2017-06-24T21:37:42.843Z,14.32
2017-06-24T21:40:10.347Z,13.82
2017-06-24T21:42:37.865Z,15.52
2017-06-24T21:45:05.357Z,16.08
2017-06-24T21:47:32.849Z,15.48
2017-06-24T21:50:00.361Z,14.43
2017-06-24T21:52:27.854Z,14.90
2017-06-24T21:54:55.358Z,13.88
2017-06-24T21:57:22.853Z,14.23
2017-06-24T21:59:50.362Z,15.35
2017-06-24T22:02:17.849Z,14.98
2017-06-24T22:04:45.346Z,15.73
2017-06-24T22:07:12.858Z,15.57
2017-06-24T22:09:40.344Z,15.63
2017-06-24T22:12:07.856Z,15.13
2017-06-24T22:14:35.350Z,15.00
2017-06-24T22:17:02.861Z,15.25
2017-06-24T22:19:30.353Z,15.20
2017-06-24T22:21:57.846Z,15.60
2017-06-24T22:24:25.353Z,14.73
2017-06-24T22:26:52.846Z,14.68
2017-06-24T22:29:20.353Z,16.55
2017-06-24T22:31:47.841Z,16.65
2017-06-24T22:34:15.338Z,16.20
2017-06-24T22:36:42.845Z,16.52
2017-06-24T22:39:10.334Z,16.05
2017-06-24T22:41:37.834Z,15.20
2017-06-24T22:44:05.322Z,15.45
2017-06-24T22:46:32.814Z,16.52
2017-06-24T22:49:00.334Z,17.33
2017-06-24T22:51:27.821Z,17.35
2017-06-24T22:53:55.325Z,16.25
2017-06-24T22:56:22.813Z,18.42
2017-06-24T22:58:50.301Z,15.98
2017-06-24T23:01:17.806Z,17.08
2017-06-24T23:03:45.309Z,16.75
2017-06-24T23:06:12.821Z,17.83
2017-06-24T23:08:40.313Z,16.27
2017-06-24T23:11:07.818Z,18.02
2017-06-24T23:13:35.325Z,18.73
2017-06-24T23:16:02.825Z,18.80
2017-06-24T23:18:30.329Z,18.48
2017-06-24T23:20:57.817Z,19.27
2017-06-24T23:23:25.326Z,17.80
2017-06-24T23:25:52.818Z,17.90
2017-06-24T23:28:20.318Z,19.85
2017-06-24T23:30:47.826Z,17.98
2017-06-24T23:33:15.317Z,17.70
2017-06-24T23:35:42.825Z,18.98
2017-06-24T23:38:10.317Z,19.05
2017-06-24T23:40:37.829Z,19.65
2017-06-24T23:43:05.320Z,18.70
2017-06-24T23:45:32.809Z,18.80
2017-06-24T23:48:00.317Z,18.45
2017-06-24T23:50:27.809Z,18.35
2017-06-24T23:52:55.318Z,19.08
2017-06-24T23:55:22.810Z,18.95
2017-06-24T23:57:50.322Z,17.70
